Time;durP1;ratioP1;P1;durP2;ratioP2;P2;SDS_P1;SDS_P2;PMS_P1;PMS_P2;Temp;Humidity;BMP_temperature;BMP_pressure;BME280_temperature;BME280_humidity;BME280_pressure;Samples;Min_cycle;Max_cycle;Signal;HPM_P1;HPM_P2
2022/08/20 00:08:07;;;;;;;9.95;7.55;;;;;;;;;;17433457;28;20258;-58
2022/08/20 00:16:31;;;;;;;8.80;7.28;;;;;;;;;;17434684;28;20631;-57
2022/08/20 00:24:51;;;;;;;11.15;7.88;;;;;;;;;;17430458;28;20192;-58
2022/08/20 00:33:18;;;;;;;10.20;7.47;;;;;;;;;;17431468;28;20186;-58
2022/08/20 00:41:38;;;;;;;8.23;7.43;;;;;;;;;;17432098;28;20164;-57
2022/08/20 00:49:59;;;;;;;8.93;7.78;;;;;;;;;;17431842;28;20239;-58
2022/08/20 00:58:19;;;;;;;8.43;7.32;;;;;;;;;;17429984;28;20164;-58
2022/08/20 01:06:41;;;;;;;9.45;7.80;;;;;;;;;;17431128;28;20207;-57
2022/08/20 01:15:02;;;;;;;9.93;7.70;;;;;;;;;;17428874;28;20226;-57
2022/08/20 01:23:31;;;;;;;8.65;7.80;;;;;;;;;;17429195;28;20218;-57
2022/08/20 01:31:51;;;;;;;9.25;8.07;;;;;;;;;;17428888;28;20159;-56
2022/08/20 01:40:12;;;;;;;8.90;8.10;;;;;;;;;;17427392;28;20184;-57
2022/08/20 01:48:33;;;;;;;9.68;8.80;;;;;;;;;;17427673;28;20263;-58
2022/08/20 01:56:53;;;;;;;10.93;8.27;;;;;;;;;;17428183;28;20183;-58
2022/08/20 02:05:13;;;;;;;9.05;8.15;;;;;;;;;;17427102;28;20558;-58
2022/08/20 02:13:34;;;;;;;10.82;8.27;;;;;;;;;;17426440;28;20187;-57
2022/08/20 02:21:57;;;;;;;9.25;8.30;;;;;;;;;;17423121;28;20180;-58
2022/08/20 02:30:19;;;;;;;10.85;8.50;;;;;;;;;;17425612;28;20692;-57
2022/08/20 02:38:40;;;;;;;9.38;8.48;;;;;;;;;;17421736;28;20178;-57
2022/08/20 02:47:01;;;;;;;9.18;8.30;;;;;;;;;;17424170;28;20694;-54
2022/08/20 02:55:21;;;;;;;9.10;8.23;;;;;;;;;;17424183;28;20199;-57
2022/08/20 03:03:42;;;;;;;10.50;8.10;;;;;;;;;;17432721;28;20200;-57
2022/08/20 03:12:03;;;;;;;10.23;8.65;;;;;;;;;;17436077;28;20172;-58
2022/08/20 03:20:24;;;;;;;9.13;8.32;;;;;;;;;;17436561;28;20641;-58
2022/08/20 03:28:45;;;;;;;8.63;7.82;;;;;;;;;;17436840;28;20554;-56
2022/08/20 03:37:05;;;;;;;12.88;8.50;;;;;;;;;;17436319;28;20172;-57
2022/08/20 03:45:26;;;;;;;10.30;7.63;;;;;;;;;;17434435;28;20285;-58
2022/08/20 03:53:46;;;;;;;9.00;7.85;;;;;;;;;;17435024;28;20183;-57
2022/08/20 04:02:07;;;;;;;8.57;7.78;;;;;;;;;;17434626;28;20180;-58
2022/08/20 04:10:27;;;;;;;13.15;8.18;;;;;;;;;;17431921;28;20175;-58
2022/08/20 04:18:48;;;;;;;11.27;8.23;;;;;;;;;;17434082;28;20211;-58
2022/08/20 04:27:09;;;;;;;8.27;7.45;;;;;;;;;;17433515;28;20200;-58
2022/08/20 04:35:29;;;;;;;9.40;7.75;;;;;;;;;;17432846;28;20184;-58
2022/08/20 04:43:52;;;;;;;8.35;7.47;;;;;;;;;;17429712;28;20246;-57
2022/08/20 04:52:12;;;;;;;9.50;7.90;;;;;;;;;;17432445;28;20180;-58
2022/08/20 05:00:32;;;;;;;9.63;7.80;;;;;;;;;;17430070;28;20271;-57
2022/08/20 05:08:53;;;;;;;8.10;7.40;;;;;;;;;;17431306;28;20582;-57
2022/08/20 05:17:15;;;;;;;11.35;7.68;;;;;;;;;;17428848;28;20172;-58
2022/08/20 05:25:36;;;;;;;8.48;7.57;;;;;;;;;;17426102;28;20585;-58
2022/08/20 05:33:57;;;;;;;9.55;7.60;;;;;;;;;;17429993;28;20688;-58
2022/08/20 05:42:17;;;;;;;8.23;7.43;;;;;;;;;;17426967;28;20176;-58
2022/08/20 05:50:38;;;;;;;9.13;7.18;;;;;;;;;;17428849;28;20741;-58
2022/08/20 05:59:08;;;;;;;8.90;7.60;;;;;;;;;;17426506;28;20167;-58
2022/08/20 06:07:28;;;;;;;9.52;7.85;;;;;;;;;;17425869;28;20196;-58
2022/08/20 06:15:49;;;;;;;10.60;7.38;;;;;;;;;;17372880;28;20164;-59
2022/08/20 06:24:09;;;;;;;12.75;7.47;;;;;;;;;;17355513;28;20287;-57
2022/08/20 06:32:29;;;;;;;7.78;6.95;;;;;;;;;;17357603;28;20198;-57
2022/08/20 06:40:50;;;;;;;11.48;7.43;;;;;;;;;;17356066;28;20179;-58
2022/08/20 06:49:10;;;;;;;7.88;7.07;;;;;;;;;;17357519;28;20326;-58
2022/08/20 06:57:30;;;;;;;9.63;7.85;;;;;;;;;;17355733;28;20172;-59
2022/08/20 07:05:51;;;;;;;8.25;7.07;;;;;;;;;;17356055;28;20282;-59
2022/08/20 07:14:11;;;;;;;8.02;7.22;;;;;;;;;;17356923;28;20173;-59
2022/08/20 07:22:35;;;;;;;7.65;6.80;;;;;;;;;;17356485;28;20226;-59
2022/08/20 07:39:34;;;;;;;50.85;10.05;;;;;;;;;;17354658;28;20176;-57
2022/08/20 07:48:04;;;;;;;131.38;17.20;;;;;;;;;;17354773;28;20236;-58
2022/08/20 07:56:25;;;;;;;13.13;7.60;;;;;;;;;;17353028;28;20177;-58
2022/08/20 08:04:45;;;;;;;11.32;6.90;;;;;;;;;;17310886;28;20209;-58
2022/08/20 08:13:08;;;;;;;12.48;7.10;;;;;;;;;;17296719;28;20178;-58
2022/08/20 08:21:29;;;;;;;13.50;7.53;;;;;;;;;;17336615;28;20326;-58
2022/08/20 08:29:50;;;;;;;8.55;6.30;;;;;;;;;;17315329;28;20219;-58
2022/08/20 08:38:10;;;;;;;12.50;7.22;;;;;;;;;;17315331;28;20231;-58
2022/08/20 08:46:34;;;;;;;13.02;6.43;;;;;;;;;;17361511;28;20236;-57
2022/08/20 08:54:57;;;;;;;13.45;6.00;;;;;;;;;;17364574;28;20168;-55
2022/08/20 09:03:26;;;;;;;7.38;5.90;;;;;;;;;;17339430;28;20212;-57
2022/08/20 09:11:48;;;;;;;12.90;6.15;;;;;;;;;;17301418;28;20189;-58
2022/08/20 09:20:09;;;;;;;9.80;6.05;;;;;;;;;;17305134;28;20246;-57
2022/08/20 09:28:29;;;;;;;6.72;5.97;;;;;;;;;;17345124;28;20215;-58
2022/08/20 09:36:50;;;;;;;6.40;5.80;;;;;;;;;;17362659;28;20189;-59
2022/08/20 09:45:10;;;;;;;9.70;5.93;;;;;;;;;;17356104;28;20240;-58
2022/08/20 09:53:31;;;;;;;6.80;5.55;;;;;;;;;;17324802;28;20596;-58
2022/08/20 10:01:51;;;;;;;6.55;5.78;;;;;;;;;;17412756;28;20180;-58
2022/08/20 10:10:12;;;;;;;11.90;6.45;;;;;;;;;;17430190;28;20204;-58
2022/08/20 10:18:33;;;;;;;6.28;5.60;;;;;;;;;;17350602;28;20193;-58
2022/08/20 10:26:57;;;;;;;7.00;5.57;;;;;;;;;;17339024;28;20294;-59
2022/08/20 10:35:18;;;;;;;7.10;5.78;;;;;;;;;;17331817;28;20188;-63
2022/08/20 10:43:38;;;;;;;6.93;6.13;;;;;;;;;;17343840;28;20598;-57
2022/08/20 10:51:58;;;;;;;6.85;6.18;;;;;;;;;;17335414;28;20955;-59
2022/08/20 11:00:19;;;;;;;8.80;5.75;;;;;;;;;;17324886;28;20210;-58
2022/08/20 11:08:39;;;;;;;6.75;6.15;;;;;;;;;;17327394;28;20311;-59
2022/08/20 11:17:00;;;;;;;6.68;6.00;;;;;;;;;;17335188;28;20200;-60
2022/08/20 11:25:21;;;;;;;7.85;6.43;;;;;;;;;;17350132;28;20251;-59
2022/08/20 11:33:41;;;;;;;7.18;6.00;;;;;;;;;;17351383;28;20180;-59
2022/08/20 11:42:02;;;;;;;9.93;6.15;;;;;;;;;;17357054;28;20193;-57
2022/08/20 11:50:22;;;;;;;7.13;6.10;;;;;;;;;;17355064;28;20783;-59
2022/08/20 11:58:42;;;;;;;7.50;6.15;;;;;;;;;;17354005;28;20185;-59
2022/08/20 12:07:06;;;;;;;7.57;6.60;;;;;;;;;;17306485;28;20213;-57
2022/08/20 12:15:27;;;;;;;6.80;6.10;;;;;;;;;;17295261;28;20176;-59
2022/08/20 12:23:47;;;;;;;6.50;5.90;;;;;;;;;;17299729;28;20228;-59
2022/08/20 12:32:08;;;;;;;6.05;5.57;;;;;;;;;;17349621;28;20275;-59
2022/08/20 12:40:29;;;;;;;6.97;6.28;;;;;;;;;;17347053;28;20244;-60
2022/08/20 12:48:49;;;;;;;7.13;6.05;;;;;;;;;;17331909;28;20260;-58
2022/08/20 12:57:21;;;;;;;7.05;6.45;;;;;;;;;;17353358;28;20188;-59
2022/08/20 13:05:42;;;;;;;9.13;6.50;;;;;;;;;;17346763;28;20325;-59
2022/08/20 13:14:02;;;;;;;6.90;6.25;;;;;;;;;;17342624;28;20208;-59
2022/08/20 13:22:22;;;;;;;7.75;6.15;;;;;;;;;;17340817;28;20204;-59
2022/08/20 13:30:43;;;;;;;7.13;6.30;;;;;;;;;;17341888;28;20184;-59
2022/08/20 13:39:04;;;;;;;7.15;6.15;;;;;;;;;;17349576;28;20727;-59
2022/08/20 13:47:29;;;;;;;6.97;5.82;;;;;;;;;;17345163;28;20761;-59
2022/08/20 13:55:49;;;;;;;6.28;5.72;;;;;;;;;;17343109;28;20203;-60
2022/08/20 14:04:10;;;;;;;6.32;5.75;;;;;;;;;;17344407;28;20258;-60
2022/08/20 14:12:30;;;;;;;5.75;5.25;;;;;;;;;;17346186;28;20180;-60
2022/08/20 14:20:51;;;;;;;7.30;5.68;;;;;;;;;;17340026;28;20195;-59
2022/08/20 14:29:11;;;;;;;6.95;6.25;;;;;;;;;;17291007;28;20197;-59
2022/08/20 14:37:33;;;;;;;7.28;6.55;;;;;;;;;;17295660;28;20667;-60
2022/08/20 14:45:53;;;;;;;6.45;5.95;;;;;;;;;;17301390;28;20239;-59
2022/08/20 14:54:13;;;;;;;6.53;5.93;;;;;;;;;;17353640;28;20223;-59
2022/08/20 15:02:34;;;;;;;6.57;5.97;;;;;;;;;;17369465;28;20527;-59
2022/08/20 15:10:55;;;;;;;7.68;6.97;;;;;;;;;;17365222;28;20199;-59
2022/08/20 15:19:15;;;;;;;8.30;7.47;;;;;;;;;;17420037;28;20180;-58
2022/08/20 15:27:35;;;;;;;9.43;7.97;;;;;;;;;;17383831;28;20476;-60
2022/08/20 15:35:56;;;;;;;28.90;26.25;;;;;;;;;;17360496;28;20180;-58
2022/08/20 15:44:16;;;;;;;12.23;11.13;;;;;;;;;;17349293;28;20294;-59
2022/08/20 15:52:40;;;;;;;17.40;15.68;;;;;;;;;;17393934;28;20650;-59
2022/08/20 16:01:07;;;;;;;10.98;9.98;;;;;;;;;;17337698;28;20188;-59
2022/08/20 16:09:52;;;;;;;11.07;9.93;;;;;;;;;;17327317;28;20203;-60
2022/08/20 16:18:19;;;;;;;40.83;36.90;;;;;;;;;;17365197;28;20189;-59
2022/08/20 16:26:45;;;;;;;13.05;11.60;;;;;;;;;;17369856;28;20203;-59
2022/08/20 16:35:24;;;;;;;14.00;12.82;;;;;;;;;;17361797;28;20526;-64
2022/08/20 16:43:49;;;;;;;10.68;9.55;;;;;;;;;;17331035;28;20677;-59
2022/08/20 16:52:10;;;;;;;12.88;9.70;;;;;;;;;;17294974;28;20240;-59
2022/08/20 17:00:34;;;;;;;10.10;9.20;;;;;;;;;;17311233;28;20192;-59
2022/08/20 17:08:55;;;;;;;9.90;9.05;;;;;;;;;;17407914;28;20219;-58
2022/08/20 17:17:41;;;;;;;10.52;8.95;;;;;;;;;;17364835;28;20172;-59
2022/08/20 17:26:03;;;;;;;11.10;8.43;;;;;;;;;;17358309;28;20244;-60
2022/08/20 17:34:27;;;;;;;10.98;8.15;;;;;;;;;;17340489;28;20700;-59
2022/08/20 17:42:52;;;;;;;10.35;9.30;;;;;;;;;;17324525;28;20644;-62
2022/08/20 19:01:11;;;;;;;10.70;7.28;;;;;;;;;;17012795;27;20464;-85
2022/08/20 19:09:41;;;;;;;11.65;8.00;;;;;;;;;;16933311;28;20184;-84
2022/08/20 19:18:09;;;;;;;10.73;7.18;;;;;;;;;;16968836;28;20204;-84
2022/08/20 19:26:30;;;;;;;8.63;7.00;;;;;;;;;;16938688;28;20176;-83
2022/08/20 19:34:52;;;;;;;8.93;6.65;;;;;;;;;;16937039;28;20536;-84
2022/08/20 19:43:19;;;;;;;7.18;6.47;;;;;;;;;;16936240;29;20197;-84
2022/08/20 19:51:51;;;;;;;7.95;6.63;;;;;;;;;;16933690;28;20254;-85
2022/08/20 20:00:11;;;;;;;8.10;7.10;;;;;;;;;;16930692;28;20746;-85
2022/08/20 20:08:40;;;;;;;6.78;6.07;;;;;;;;;;16912755;28;20189;-82
2022/08/20 20:17:03;;;;;;;6.82;6.13;;;;;;;;;;16905172;28;20239;-83
2022/08/20 20:25:23;;;;;;;7.65;6.82;;;;;;;;;;16895590;28;20226;-83
2022/08/20 20:33:49;;;;;;;8.18;6.05;;;;;;;;;;16887843;28;20209;-83
2022/08/20 20:42:11;;;;;;;8.07;6.00;;;;;;;;;;17016014;28;20244;-83
2022/08/20 20:50:35;;;;;;;7.05;5.65;;;;;;;;;;17152354;28;20191;-82
2022/08/20 20:58:55;;;;;;;8.07;7.15;;;;;;;;;;16881874;28;20271;-82
2022/08/20 21:07:21;;;;;;;6.72;6.05;;;;;;;;;;16884689;28;20173;-82
2022/08/20 21:15:41;;;;;;;6.60;6.00;;;;;;;;;;16886872;28;20244;-82
2022/08/20 21:24:02;;;;;;;7.68;6.15;;;;;;;;;;16887263;28;20497;-82
2022/08/20 21:32:22;;;;;;;9.98;9.05;;;;;;;;;;16888658;28;20177;-82
2022/08/20 21:40:42;;;;;;;6.22;5.68;;;;;;;;;;16884883;28;20231;-82
2022/08/20 21:49:03;;;;;;;16.00;14.45;;;;;;;;;;16887787;28;20188;-82
2022/08/20 21:57:25;;;;;;;6.45;5.85;;;;;;;;;;16982312;28;20747;-82
2022/08/20 22:05:45;;;;;;;9.02;7.15;;;;;;;;;;16934022;28;20292;-82
2022/08/20 22:14:07;;;;;;;14.57;12.48;;;;;;;;;;16887058;28;20617;-82
2022/08/20 22:22:27;;;;;;;6.93;5.97;;;;;;;;;;16895216;28;20189;-83
2022/08/20 22:30:47;;;;;;;8.70;7.70;;;;;;;;;;16878110;28;20815;-84
2022/08/20 22:39:08;;;;;;;17.10;7.65;;;;;;;;;;16883761;28;20198;-84
2022/08/20 22:47:28;;;;;;;8.60;6.40;;;;;;;;;;16883703;28;20611;-85
2022/08/20 22:55:49;;;;;;;6.82;6.22;;;;;;;;;;16882756;28;20237;-84
2022/08/20 23:04:16;;;;;;;8.40;7.40;;;;;;;;;;16883153;28;20672;-84
2022/08/20 23:12:36;;;;;;;8.10;6.90;;;;;;;;;;16884110;29;20188;-84
2022/08/20 23:20:57;;;;;;;6.90;6.20;;;;;;;;;;16883944;28;20554;-84
2022/08/20 23:29:18;;;;;;;10.10;6.57;;;;;;;;;;16884601;28;20212;-84
2022/08/20 23:37:44;;;;;;;7.38;6.63;;;;;;;;;;16884255;28;20194;-84
2022/08/20 23:46:05;;;;;;;7.00;6.30;;;;;;;;;;16891616;29;20292;-83
2022/08/20 23:54:27;;;;;;;8.25;6.85;;;;;;;;;;16894705;28;20230;-83
